Time,TemperatureF,DewpointF,PressureIn,WindDirection,WindDirectionDegrees,WindSpeedMPH,WindSpeedGustMPH,Humidity,HourlyPrecipIn,Conditions,Clouds,dailyrainin,SoftwareType,DateUTC
2013-04-09 00:01:00,53.7,49.9,29.90,East,85,11.0,11.0,87,0.00,,,0.00,Wunderground v.1.15,2013-04-09 05:01:00,
2013-04-09 00:07:00,53.4,49.6,29.91,ENE,74,10.0,14.0,87,0.00,,,0.00,Wunderground v.1.15,2013-04-09 05:07:00,
2013-04-09 00:12:00,53.1,49.3,29.91,East,83,11.0,11.0,87,0.00,,,0.00,Wunderground v.1.15,2013-04-09 05:12:00,
2013-04-09 00:18:00,52.6,48.8,29.91,East,82,12.0,13.0,87,0.00,,,0.00,Wunderground v.1.15,2013-04-09 05:18:00,
2013-04-09 00:24:00,52.2,48.8,29.91,East,82,11.0,11.0,88,0.00,,,0.00,Wunderground v.1.15,2013-04-09 05:24:00,
2013-04-09 00:29:00,51.9,48.2,29.91,East,85,10.0,11.0,87,0.00,,,0.00,Wunderground v.1.15,2013-04-09 05:29:00,
2013-04-09 00:35:00,51.5,48.1,29.91,ESE,106,9.0,11.0,88,0.00,,,0.00,Wunderground v.1.15,2013-04-09 05:35:00,
2013-04-09 00:40:00,51.1,47.7,29.91,ENE,77,10.0,11.0,88,0.00,,,0.00,Wunderground v.1.15,2013-04-09 05:40:00,
2013-04-09 00:45:00,50.8,47.7,29.91,ENE,65,10.0,13.0,89,0.00,,,0.00,Wunderground v.1.15,2013-04-09 05:45:00,
2013-04-09 00:52:00,50.3,47.2,29.91,ENE,70,10.0,10.0,89,0.00,,,0.00,Wunderground v.1.15,2013-04-09 05:52:00,
2013-04-09 00:57:00,50.0,46.9,29.91,ENE,68,11.0,12.0,89,0.00,,,0.00,Wunderground v.1.15,2013-04-09 05:57:00,
2013-04-09 01:03:00,49.7,46.9,29.91,ENE,68,10.0,15.0,90,0.00,,,0.00,Wunderground v.1.15,2013-04-09 06:03:00,
2013-04-09 01:09:00,49.4,46.6,29.91,East,91,11.0,15.0,90,0.00,,,0.00,Wunderground v.1.15,2013-04-09 06:09:00,
2013-04-09 01:15:00,49.3,46.5,29.91,East,81,11.0,14.0,90,0.00,,,0.00,Wunderground v.1.15,2013-04-09 06:15:00,
2013-04-09 01:22:00,49.2,46.4,29.91,East,99,11.0,16.0,90,0.00,,,0.00,Wunderground v.1.15,2013-04-09 06:22:00,
2013-04-09 01:27:00,49.0,46.2,29.90,ENE,71,10.0,16.0,90,0.00,,,0.00,Wunderground v.1.15,2013-04-09 06:27:00,
2013-04-09 01:33:00,48.8,46.0,29.91,East,79,11.0,14.0,90,0.00,,,0.00,Wunderground v.1.15,2013-04-09 06:33:00,
2013-04-09 01:38:00,48.6,46.1,29.90,East,92,11.0,14.0,91,0.00,,,0.00,Wunderground v.1.15,2013-04-09 06:38:00,
2013-04-09 01:44:00,48.5,46.0,29.90,East,85,12.0,15.0,91,0.00,,,0.00,Wunderground v.1.15,2013-04-09 06:44:00,
2013-04-09 01:50:00,48.5,45.7,29.90,NE,56,13.0,13.0,90,0.00,,,0.00,Wunderground v.1.15,2013-04-09 06:50:00,
2013-04-09 01:57:00,48.4,45.6,29.90,East,86,13.0,15.0,90,0.00,,,0.00,Wunderground v.1.15,2013-04-09 06:57:00,
2013-04-09 02:03:00,48.4,45.9,29.90,ENE,75,12.0,12.0,91,0.00,,,0.00,Wunderground v.1.15,2013-04-09 07:03:00,
2013-04-09 02:09:00,48.3,45.8,29.89,East,80,12.0,16.0,91,0.00,,,0.00,Wunderground v.1.15,2013-04-09 07:09:00,
2013-04-09 02:15:00,48.2,45.7,29.89,ENE,70,11.0,12.0,91,0.00,,,0.00,Wunderground v.1.15,2013-04-09 07:15:00,
2013-04-09 02:20:00,48.0,45.5,29.90,ENE,71,10.0,11.0,91,0.00,,,0.00,Wunderground v.1.15,2013-04-09 07:20:00,
2013-04-09 02:25:00,47.9,45.7,29.89,ENE,61,10.0,16.0,92,0.00,,,0.00,Wunderground v.1.15,2013-04-09 07:25:00,
2013-04-09 02:30:00,47.7,45.5,29.90,East,87,12.0,14.0,92,0.00,,,0.01,Wunderground v.1.15,2013-04-09 07:30:00,
2013-04-09 02:37:00,47.4,45.5,29.90,ENE,60,12.0,17.0,93,0.10,,,0.02,Wunderground v.1.15,2013-04-09 07:37:00,
2013-04-09 02:43:00,47.0,45.6,29.89,NE,38,11.0,12.0,95,0.21,,,0.07,Wunderground v.1.15,2013-04-09 07:43:00,
2013-04-09 02:48:00,46.9,45.8,29.90,ENE,58,10.0,12.0,96,0.08,,,0.07,Wunderground v.1.15,2013-04-09 07:48:00,
2013-04-09 02:54:00,46.9,45.8,29.89,ENE,62,10.0,11.0,96,0.04,,,0.07,Wunderground v.1.15,2013-04-09 07:54:00,
2013-04-09 03:00:00,46.8,45.7,29.89,ENE,65,11.0,11.0,96,0.00,,,0.07,Wunderground v.1.15,2013-04-09 08:00:00,
2013-04-09 03:06:00,46.7,45.6,29.88,East,93,12.0,17.0,96,0.00,,,0.07,Wunderground v.1.15,2013-04-09 08:06:00,
2013-04-09 03:12:00,46.6,45.2,29.88,NE,46,13.0,15.0,95,0.00,,,0.07,Wunderground v.1.15,2013-04-09 08:12:00,
2013-04-09 03:18:00,46.6,45.2,29.89,ENE,75,13.0,16.0,95,0.00,,,0.07,Wunderground v.1.15,2013-04-09 08:18:00,
2013-04-09 03:23:00,46.5,45.1,29.88,ENE,60,12.0,18.0,95,0.00,,,0.07,Wunderground v.1.15,2013-04-09 08:23:00,
2013-04-09 03:29:00,46.3,44.7,29.89,ENE,63,13.0,18.0,94,0.00,,,0.07,Wunderground v.1.15,2013-04-09 08:29:00,
2013-04-09 03:35:00,46.2,44.8,29.89,ENE,57,12.0,16.0,95,0.00,,,0.07,Wunderground v.1.15,2013-04-09 08:35:00,
2013-04-09 03:40:00,46.0,44.4,29.89,ENE,57,13.0,15.0,94,0.00,,,0.07,Wunderground v.1.15,2013-04-09 08:40:00,
2013-04-09 03:45:00,46.0,44.6,29.90,ENE,70,13.0,15.0,95,0.00,,,0.07,Wunderground v.1.15,2013-04-09 08:45:00,
2013-04-09 03:51:00,45.8,44.4,29.89,ENE,76,12.0,14.0,95,0.00,,,0.07,Wunderground v.1.15,2013-04-09 08:51:00,
2013-04-09 03:57:00,45.7,44.4,29.89,ENE,64,13.0,17.0,95,0.00,,,0.07,Wunderground v.1.15,2013-04-09 08:57:00,
2013-04-09 04:02:00,45.7,44.4,29.88,ENE,67,13.0,13.0,95,0.00,,,0.07,Wunderground v.1.15,2013-04-09 09:02:00,
2013-04-09 04:08:00,45.7,44.4,29.89,East,79,13.0,22.0,95,0.00,,,0.07,Wunderground v.1.15,2013-04-09 09:08:00,
2013-04-09 04:14:00,45.6,44.3,29.89,NE,54,13.0,16.0,95,0.00,,,0.07,Wunderground v.1.15,2013-04-09 09:14:00,
2013-04-09 04:20:00,45.5,44.2,29.89,NE,50,12.0,12.0,95,0.00,,,0.07,Wunderground v.1.15,2013-04-09 09:20:00,
2013-04-09 04:25:00,45.3,44.0,29.89,NE,52,11.0,12.0,95,0.00,,,0.07,Wunderground v.1.15,2013-04-09 09:25:00,
2013-04-09 04:32:00,45.1,44.0,29.89,ENE,67,12.0,15.0,96,0.00,,,0.07,Wunderground v.1.15,2013-04-09 09:32:00,
2013-04-09 04:38:00,45.1,44.0,29.89,ENE,61,12.0,18.0,96,0.00,,,0.07,Wunderground v.1.15,2013-04-09 09:38:00,
2013-04-09 04:44:00,45.1,44.0,29.89,East,93,12.0,15.0,96,0.00,,,0.07,Wunderground v.1.15,2013-04-09 09:44:00,
2013-04-09 04:50:00,45.1,44.0,29.89,NE,53,11.0,11.0,96,0.00,,,0.07,Wunderground v.1.15,2013-04-09 09:50:00,
2013-04-09 04:55:00,45.1,43.8,29.87,ENE,65,13.0,18.0,95,0.00,,,0.07,Wunderground v.1.15,2013-04-09 09:55:00,
2013-04-09 05:00:00,45.0,43.7,29.87,East,87,14.0,14.0,95,0.00,,,0.07,Wunderground v.1.15,2013-04-09 10:00:00,
2013-04-09 05:07:00,44.9,43.8,29.87,East,89,13.0,14.0,96,0.00,,,0.07,Wunderground v.1.15,2013-04-09 10:07:00,
2013-04-09 05:13:00,44.8,43.5,29.86,East,91,14.0,17.0,95,0.00,,,0.07,Wunderground v.1.15,2013-04-09 10:13:00,
2013-04-09 05:18:00,44.7,43.6,29.86,East,98,15.0,17.0,96,0.00,,,0.07,Wunderground v.1.15,2013-04-09 10:18:00,
2013-04-09 05:23:00,44.7,43.6,29.86,ENE,71,15.0,15.0,96,0.00,,,0.07,Wunderground v.1.15,2013-04-09 10:23:00,
2013-04-09 05:28:00,44.7,43.6,29.87,East,90,14.0,21.0,96,0.00,,,0.07,Wunderground v.1.15,2013-04-09 10:28:00,
2013-04-09 05:33:00,44.8,43.7,29.87,East,88,13.0,14.0,96,0.00,,,0.07,Wunderground v.1.15,2013-04-09 10:33:00,
2013-04-09 05:39:00,44.9,43.8,29.87,East,86,12.0,14.0,96,0.00,,,0.07,Wunderground v.1.15,2013-04-09 10:39:00,
2013-04-09 05:45:00,45.2,44.1,29.86,East,93,12.0,19.0,96,0.00,,,0.07,Wunderground v.1.15,2013-04-09 10:45:00,
2013-04-09 05:50:00,45.4,44.1,29.86,East,90,13.0,13.0,95,0.00,,,0.07,Wunderground v.1.15,2013-04-09 10:50:00,
2013-04-09 05:57:00,45.5,44.2,29.87,East,81,12.0,14.0,95,0.00,,,0.07,Wunderground v.1.15,2013-04-09 10:57:00,
2013-04-09 06:03:00,45.6,44.3,29.86,ENE,78,11.0,13.0,95,0.00,,,0.07,Wunderground v.1.15,2013-04-09 11:03:00,
2013-04-09 06:08:00,45.7,44.4,29.86,East,80,12.0,17.0,95,0.00,,,0.07,Wunderground v.1.15,2013-04-09 11:08:00,
2013-04-09 06:14:00,45.8,44.2,29.86,ENE,73,13.0,14.0,94,0.00,,,0.07,Wunderground v.1.15,2013-04-09 11:14:00,
2013-04-09 06:19:00,45.7,44.1,29.87,East,86,12.0,14.0,94,0.00,,,0.07,Wunderground v.1.15,2013-04-09 11:19:00,
2013-04-09 06:25:00,45.7,44.1,29.87,ENE,66,10.0,14.0,94,0.00,,,0.07,Wunderground v.1.15,2013-04-09 11:25:00,
2013-04-09 06:30:00,45.8,44.2,29.87,East,80,10.0,10.0,94,0.00,,,0.07,Wunderground v.1.15,2013-04-09 11:30:00,
2013-04-09 06:36:00,45.8,44.2,29.87,ENE,76,10.0,12.0,94,0.00,,,0.07,Wunderground v.1.15,2013-04-09 11:36:00,
2013-04-09 06:42:00,45.8,44.2,29.85,ENE,69,10.0,15.0,94,0.00,,,0.07,Wunderground v.1.15,2013-04-09 11:42:00,
2013-04-09 06:47:00,45.9,44.5,29.84,ENE,64,11.0,15.0,95,0.00,,,0.07,Wunderground v.1.15,2013-04-09 11:47:00,
2013-04-09 06:54:00,45.9,44.3,29.84,East,87,12.0,13.0,94,0.00,,,0.07,Wunderground v.1.15,2013-04-09 11:54:00,
2013-04-09 07:00:00,46.1,44.5,29.85,ESE,115,12.0,12.0,94,0.00,,,0.07,Wunderground v.1.15,2013-04-09 12:00:00,
2013-04-09 07:07:00,46.3,44.7,29.86,East,81,9.0,12.0,94,0.00,,,0.07,Wunderground v.1.15,2013-04-09 12:07:00,
2013-04-09 07:13:00,46.5,44.9,29.86,ENE,63,9.0,10.0,94,0.00,,,0.07,Wunderground v.1.15,2013-04-09 12:13:00,
2013-04-09 07:19:00,46.5,44.9,29.86,East,83,11.0,15.0,94,0.00,,,0.07,Wunderground v.1.15,2013-04-09 12:19:00,
2013-04-09 07:25:00,46.5,44.9,29.87,ENE,70,11.0,14.0,94,0.00,,,0.07,Wunderground v.1.15,2013-04-09 12:25:00,
2013-04-09 07:31:00,46.6,44.7,29.87,ENE,66,11.0,11.0,93,0.00,,,0.07,Wunderground v.1.15,2013-04-09 12:31:00,
2013-04-09 07:37:00,46.5,44.9,29.87,ENE,69,10.0,11.0,94,0.00,,,0.07,Wunderground v.1.15,2013-04-09 12:37:00,
2013-04-09 07:42:00,46.5,44.9,29.87,East,83,10.0,15.0,94,0.00,,,0.07,Wunderground v.1.15,2013-04-09 12:42:00,
2013-04-09 07:48:00,46.4,44.8,29.87,ENE,76,11.0,15.0,94,0.00,,,0.07,Wunderground v.1.15,2013-04-09 12:48:00,
2013-04-09 07:54:00,46.3,44.9,29.87,ENE,65,11.0,14.0,95,0.00,,,0.08,Wunderground v.1.15,2013-04-09 12:54:00,
2013-04-09 07:59:00,46.3,44.9,29.87,ENE,71,11.0,14.0,95,0.00,,,0.08,Wunderground v.1.15,2013-04-09 12:59:00,
2013-04-09 08:05:00,46.3,44.9,29.87,NE,53,11.0,14.0,95,0.00,,,0.08,Wunderground v.1.15,2013-04-09 13:05:00,
2013-04-09 08:10:00,46.3,44.9,29.88,NE,53,11.0,11.0,95,0.00,,,0.08,Wunderground v.1.15,2013-04-09 13:10:00,
2013-04-09 08:16:00,46.4,45.3,29.88,NNE,32,11.0,13.0,96,0.00,,,0.08,Wunderground v.1.15,2013-04-09 13:16:00,
2013-04-09 08:21:00,46.4,45.3,29.87,NE,55,10.0,10.0,96,0.00,,,0.08,Wunderground v.1.15,2013-04-09 13:21:00,
2013-04-09 08:27:00,46.4,45.3,29.87,NE,53,11.0,13.0,96,0.00,,,0.08,Wunderground v.1.15,2013-04-09 13:27:00,
2013-04-09 08:33:00,46.4,45.3,29.86,ENE,59,11.0,13.0,96,0.00,,,0.08,Wunderground v.1.15,2013-04-09 13:33:00,
2013-04-09 08:39:00,46.3,45.2,29.86,ENE,63,11.0,13.0,96,0.00,,,0.08,Wunderground v.1.15,2013-04-09 13:39:00,
2013-04-09 08:45:00,46.3,45.2,29.86,ENE,71,11.0,12.0,96,0.00,,,0.08,Wunderground v.1.15,2013-04-09 13:45:00,
2013-04-09 08:52:00,46.3,45.5,29.85,ENE,76,10.0,10.0,97,0.00,,,0.08,Wunderground v.1.15,2013-04-09 13:52:00,
2013-04-09 08:57:00,46.4,45.6,29.85,ENE,68,9.0,12.0,97,0.00,,,0.08,Wunderground v.1.15,2013-04-09 13:57:00,
2013-04-09 09:02:00,46.5,45.7,29.85,ENE,65,9.0,10.0,97,0.00,,,0.08,Wunderground v.1.15,2013-04-09 14:02:00,
2013-04-09 09:08:00,46.5,45.7,29.85,ENE,67,9.0,14.0,97,0.00,,,0.08,Wunderground v.1.15,2013-04-09 14:08:00,
2013-04-09 09:14:00,46.5,45.7,29.84,ENE,66,9.0,14.0,97,0.00,,,0.09,Wunderground v.1.15,2013-04-09 14:14:00,
2013-04-09 09:19:00,46.7,45.9,29.84,ENE,70,10.0,14.0,97,0.00,,,0.09,Wunderground v.1.15,2013-04-09 14:19:00,
2013-04-09 09:25:00,47.0,46.2,29.84,ENE,78,10.0,11.0,97,0.00,,,0.09,Wunderground v.1.15,2013-04-09 14:25:00,
2013-04-09 09:30:00,47.2,46.4,29.83,East,79,10.0,15.0,97,0.00,,,0.09,Wunderground v.1.15,2013-04-09 14:30:00,
2013-04-09 09:36:00,47.5,46.7,29.83,ENE,58,10.0,15.0,97,0.00,,,0.09,Wunderground v.1.15,2013-04-09 14:36:00,
2013-04-09 09:42:00,47.5,46.7,29.83,ENE,76,11.0,14.0,97,0.00,,,0.09,Wunderground v.1.15,2013-04-09 14:42:00,
2013-04-09 09:47:00,47.5,46.7,29.83,East,79,11.0,14.0,97,0.00,,,0.09,Wunderground v.1.15,2013-04-09 14:47:00,
2013-04-09 09:53:00,47.5,46.7,29.83,NE,44,11.0,15.0,97,0.00,,,0.09,Wunderground v.1.15,2013-04-09 14:53:00,
2013-04-09 09:58:00,47.6,46.8,29.83,ENE,63,12.0,15.0,97,0.00,,,0.09,Wunderground v.1.15,2013-04-09 14:58:00,
2013-04-09 10:04:00,47.5,46.4,29.84,NE,54,13.0,15.0,96,0.00,,,0.09,Wunderground v.1.15,2013-04-09 15:04:00,
2013-04-09 10:10:00,47.7,46.9,29.83,NE,35,12.0,12.0,97,0.00,,,0.09,Wunderground v.1.15,2013-04-09 15:10:00,
2013-04-09 10:16:00,47.6,46.8,29.84,ENE,58,11.0,14.0,97,0.00,,,0.09,Wunderground v.1.15,2013-04-09 15:16:00,
2013-04-09 10:22:00,47.7,46.9,29.84,East,79,10.0,11.0,97,0.00,,,0.09,Wunderground v.1.15,2013-04-09 15:22:00,
2013-04-09 10:28:00,47.7,46.9,29.83,East,86,11.0,14.0,97,0.00,,,0.09,Wunderground v.1.15,2013-04-09 15:28:00,
2013-04-09 10:34:00,47.9,47.1,29.83,NE,53,10.0,13.0,97,0.00,,,0.09,Wunderground v.1.15,2013-04-09 15:34:00,
2013-04-09 10:40:00,48.2,47.4,29.83,NE,49,11.0,11.0,97,0.00,,,0.09,Wunderground v.1.15,2013-04-09 15:40:00,
2013-04-09 10:46:00,48.3,47.5,29.83,ENE,68,10.0,12.0,97,0.00,,,0.09,Wunderground v.1.15,2013-04-09 15:46:00,
2013-04-09 10:52:00,48.4,47.6,29.83,NE,46,10.0,14.0,97,0.00,,,0.09,Wunderground v.1.15,2013-04-09 15:52:00,
2013-04-09 10:57:00,48.5,47.7,29.83,NE,55,11.0,14.0,97,0.00,,,0.09,Wunderground v.1.15,2013-04-09 15:57:00,
2013-04-09 11:02:00,48.6,47.8,29.83,ENE,59,12.0,14.0,97,0.00,,,0.09,Wunderground v.1.15,2013-04-09 16:02:00,
2013-04-09 11:07:00,48.8,48.0,29.82,ENE,72,13.0,14.0,97,0.00,,,0.09,Wunderground v.1.15,2013-04-09 16:07:00,
2013-04-09 11:12:00,48.9,47.8,29.82,ENE,66,12.0,15.0,96,0.00,,,0.09,Wunderground v.1.15,2013-04-09 16:12:00,
2013-04-09 11:18:00,49.2,48.1,29.82,ENE,77,11.0,15.0,96,0.00,,,0.09,Wunderground v.1.15,2013-04-09 16:18:00,
2013-04-09 11:23:00,50.0,49.2,29.82,ENE,78,11.0,16.0,97,0.00,,,0.09,Wunderground v.1.15,2013-04-09 16:23:00,
2013-04-09 11:29:00,50.4,49.3,29.82,East,81,12.0,16.0,96,0.00,,,0.09,Wunderground v.1.15,2013-04-09 16:29:00,
2013-04-09 11:35:00,50.9,49.8,29.82,ESE,105,10.0,12.0,96,0.00,,,0.09,Wunderground v.1.15,2013-04-09 16:35:00,
2013-04-09 11:41:00,51.2,49.8,29.82,East,94,9.0,14.0,95,0.00,,,0.09,Wunderground v.1.15,2013-04-09 16:41:00,
2013-04-09 11:47:00,51.1,49.4,29.82,East,92,9.0,14.0,94,0.00,,,0.09,Wunderground v.1.15,2013-04-09 16:47:00,
2013-04-09 11:53:00,51.1,49.7,29.81,ESE,109,10.0,10.0,95,0.00,,,0.09,Wunderground v.1.15,2013-04-09 16:53:00,
2013-04-09 11:59:00,51.4,50.0,29.81,ENE,76,9.0,10.0,95,0.00,,,0.09,Wunderground v.1.15,2013-04-09 16:59:00,
2013-04-09 12:04:00,52.2,50.8,29.80,East,82,10.0,15.0,95,0.00,,,0.09,Wunderground v.1.15,2013-04-09 17:04:00,
2013-04-09 12:10:00,53.2,51.8,29.80,ENE,74,10.0,10.0,95,0.00,,,0.09,Wunderground v.1.15,2013-04-09 17:10:00,
2013-04-09 12:15:00,54.4,53.0,29.80,East,79,10.0,11.0,95,0.00,,,0.09,Wunderground v.1.15,2013-04-09 17:15:00,
2013-04-09 12:21:00,55.0,53.0,29.81,NE,51,10.0,11.0,93,0.00,,,0.09,Wunderground v.1.15,2013-04-09 17:21:00,
2013-04-09 12:27:00,54.7,52.4,29.81,ENE,71,9.0,11.0,92,0.00,,,0.09,Wunderground v.1.15,2013-04-09 17:27:00,
2013-04-09 12:33:00,55.0,53.0,29.80,East,86,8.0,8.0,93,0.00,,,0.09,Wunderground v.1.15,2013-04-09 17:33:00,
2013-04-09 12:39:00,55.5,52.9,29.80,East,84,9.0,11.0,91,0.00,,,0.09,Wunderground v.1.15,2013-04-09 17:39:00,
2013-04-09 12:45:00,55.8,53.2,29.80,ENE,65,9.0,13.0,91,0.00,,,0.09,Wunderground v.1.15,2013-04-09 17:45:00,
2013-04-09 12:50:00,56.0,53.4,29.80,ENE,60,9.0,9.0,91,0.00,,,0.09,Wunderground v.1.15,2013-04-09 17:50:00,
2013-04-09 12:57:00,56.7,54.1,29.80,East,96,9.0,11.0,91,0.00,,,0.09,Wunderground v.1.15,2013-04-09 17:57:00,
2013-04-09 13:02:00,57.1,54.2,29.80,East,88,9.0,9.0,90,0.00,,,0.09,Wunderground v.1.15,2013-04-09 18:02:00,
2013-04-09 13:07:00,57.6,54.7,29.80,ESE,107,9.0,11.0,90,0.00,,,0.09,Wunderground v.1.15,2013-04-09 18:07:00,
2013-04-09 13:12:00,58.3,55.1,29.80,East,88,8.0,9.0,89,0.00,,,0.09,Wunderground v.1.15,2013-04-09 18:12:00,
2013-04-09 13:18:00,58.5,55.0,29.80,ENE,72,7.0,9.0,88,0.00,,,0.09,Wunderground v.1.15,2013-04-09 18:18:00,
2013-04-09 13:23:00,58.6,55.4,29.80,East,82,8.0,11.0,89,0.00,,,0.09,Wunderground v.1.15,2013-04-09 18:23:00,
2013-04-09 13:29:00,59.0,55.8,29.80,ENE,71,9.0,13.0,89,0.00,,,0.09,Wunderground v.1.15,2013-04-09 18:29:00,
2013-04-09 13:34:00,59.2,56.0,29.80,East,80,9.0,10.0,89,0.00,,,0.09,Wunderground v.1.15,2013-04-09 18:34:00,
2013-04-09 13:40:00,59.5,55.9,29.81,ENE,59,7.0,7.0,88,0.00,,,0.09,Wunderground v.1.15,2013-04-09 18:40:00,
2013-04-09 13:45:00,58.6,54.7,29.81,NE,48,7.0,11.0,87,0.00,,,0.09,Wunderground v.1.15,2013-04-09 18:45:00,
2013-04-09 13:51:00,58.2,55.0,29.81,ENE,59,8.0,9.0,89,0.00,,,0.09,Wunderground v.1.15,2013-04-09 18:51:00,
2013-04-09 13:57:00,58.1,54.9,29.80,ENE,75,8.0,9.0,89,0.00,,,0.09,Wunderground v.1.15,2013-04-09 18:57:00,
2013-04-09 14:02:00,58.4,55.2,29.80,East,92,7.0,8.0,89,0.00,,,0.09,Wunderground v.1.15,2013-04-09 19:02:00,
2013-04-09 14:08:00,58.5,55.0,29.79,ENE,69,7.0,9.0,88,0.00,,,0.09,Wunderground v.1.15,2013-04-09 19:08:00,
2013-04-09 14:15:00,59.1,55.5,29.79,ENE,69,8.0,12.0,88,0.00,,,0.09,Wunderground v.1.15,2013-04-09 19:15:00,
2013-04-09 14:21:00,59.8,55.9,29.79,ENE,59,9.0,13.0,87,0.00,,,0.09,Wunderground v.1.15,2013-04-09 19:21:00,
2013-04-09 14:27:00,59.9,55.4,29.80,NE,45,10.0,13.0,85,0.00,,,0.09,Wunderground v.1.15,2013-04-09 19:27:00,
2013-04-09 14:32:00,59.7,55.8,29.79,NE,46,10.0,14.0,87,0.00,,,0.09,Wunderground v.1.15,2013-04-09 19:32:00,
2013-04-09 14:38:00,59.3,54.8,29.80,NNE,32,10.0,14.0,85,0.00,,,0.09,Wunderground v.1.15,2013-04-09 19:38:00,
2013-04-09 14:44:00,58.6,54.7,29.79,ENE,67,10.0,12.0,87,0.00,,,0.09,Wunderground v.1.15,2013-04-09 19:44:00,
2013-04-09 14:49:00,58.5,54.6,29.79,NE,46,10.0,12.0,87,0.00,,,0.09,Wunderground v.1.15,2013-04-09 19:49:00,
2013-04-09 14:54:00,58.6,54.7,29.79,NE,43,8.0,11.0,87,0.00,,,0.09,Wunderground v.1.15,2013-04-09 19:54:00,
2013-04-09 15:00:00,58.9,55.4,29.79,ENE,63,8.0,8.0,88,0.00,,,0.09,Wunderground v.1.15,2013-04-09 20:00:00,
2013-04-09 15:06:00,59.1,55.2,29.79,NE,46,8.0,10.0,87,0.00,,,0.09,Wunderground v.1.15,2013-04-09 20:06:00,
2013-04-09 15:12:00,58.4,54.5,29.80,NE,46,9.0,10.0,87,0.00,,,0.09,Wunderground v.1.15,2013-04-09 20:12:00,
2013-04-09 15:18:00,57.8,54.0,29.80,NE,34,11.0,13.0,87,0.00,,,0.09,Wunderground v.1.15,2013-04-09 20:18:00,
2013-04-09 15:24:00,57.4,54.2,29.79,NE,40,10.0,11.0,89,0.00,,,0.09,Wunderground v.1.15,2013-04-09 20:24:00,
2013-04-09 15:30:00,57.0,53.2,29.79,NE,36,10.0,11.0,87,0.00,,,0.09,Wunderground v.1.15,2013-04-09 20:30:00,
2013-04-09 15:36:00,56.5,53.0,29.80,NNE,27,12.0,13.0,88,0.00,,,0.09,Wunderground v.1.15,2013-04-09 20:36:00,
2013-04-09 15:41:00,55.6,52.1,29.80,NNE,28,12.0,15.0,88,0.00,,,0.09,Wunderground v.1.15,2013-04-09 20:41:00,
2013-04-09 15:46:00,55.0,51.8,29.80,NNE,30,14.0,15.0,89,0.00,,,0.09,Wunderground v.1.15,2013-04-09 20:46:00,
2013-04-09 15:52:00,54.9,52.0,29.80,NE,55,13.0,13.0,90,0.00,,,0.09,Wunderground v.1.15,2013-04-09 20:52:00,
2013-04-09 15:58:00,54.3,51.1,29.80,NNE,27,12.0,15.0,89,0.00,,,0.09,Wunderground v.1.15,2013-04-09 20:58:00,
2013-04-09 16:03:00,53.5,50.6,29.81,NNE,31,13.0,19.0,90,0.00,,,0.09,Wunderground v.1.15,2013-04-09 21:03:00,
2013-04-09 16:09:00,52.4,50.1,29.81,NE,35,14.0,19.0,92,0.00,,,0.09,Wunderground v.1.15,2013-04-09 21:09:00,
2013-04-09 16:14:00,52.3,50.3,29.81,NNE,32,14.0,15.0,93,0.00,,,0.09,Wunderground v.1.15,2013-04-09 21:14:00,
2013-04-09 16:20:00,52.0,49.7,29.81,NNE,27,14.0,14.0,92,0.00,,,0.09,Wunderground v.1.15,2013-04-09 21:20:00,
2013-04-09 16:25:00,51.7,49.5,29.81,NNE,19,14.0,18.0,92,0.00,,,0.09,Wunderground v.1.15,2013-04-09 21:25:00,
2013-04-09 16:30:00,51.4,49.4,29.82,NNE,31,14.0,15.0,93,0.00,,,0.09,Wunderground v.1.15,2013-04-09 21:30:00,
2013-04-09 16:35:00,51.2,49.2,29.82,NE,38,14.0,17.0,93,0.00,,,0.09,Wunderground v.1.15,2013-04-09 21:35:00,
2013-04-09 16:42:00,51.0,49.0,29.82,NNE,26,15.0,18.0,93,0.00,,,0.09,Wunderground v.1.15,2013-04-09 21:42:00,
2013-04-09 16:47:00,50.9,48.9,29.83,NNE,13,15.0,18.0,93,0.00,,,0.09,Wunderground v.1.15,2013-04-09 21:47:00,
2013-04-09 16:53:00,50.5,48.6,29.83,NNE,24,14.0,15.0,93,0.00,,,0.09,Wunderground v.1.15,2013-04-09 21:53:00,
2013-04-09 16:58:00,49.9,48.0,29.83,NNE,17,14.0,20.0,93,0.00,,,0.09,Wunderground v.1.15,2013-04-09 21:58:00,
2013-04-09 17:04:00,49.6,47.9,29.83,NNE,25,15.0,19.0,94,0.00,,,0.09,Wunderground v.1.15,2013-04-09 22:04:00,
2013-04-09 17:09:00,49.6,47.7,29.83,NE,37,13.0,19.0,93,0.00,,,0.09,Wunderground v.1.15,2013-04-09 22:09:00,
2013-04-09 17:15:00,49.3,47.4,29.82,NE,53,14.0,17.0,93,0.00,,,0.09,Wunderground v.1.15,2013-04-09 22:15:00,
2013-04-09 17:21:00,49.2,47.5,29.83,NE,38,15.0,15.0,94,0.00,,,0.09,Wunderground v.1.15,2013-04-09 22:21:00,
2013-04-09 17:26:00,49.5,47.8,29.83,NE,50,15.0,21.0,94,0.00,,,0.09,Wunderground v.1.15,2013-04-09 22:26:00,
2013-04-09 17:32:00,49.6,47.7,29.83,NE,42,16.0,18.0,93,0.00,,,0.09,Wunderground v.1.15,2013-04-09 22:32:00,
2013-04-09 17:37:00,49.6,47.7,29.83,NE,45,16.0,18.0,93,0.00,,,0.09,Wunderground v.1.15,2013-04-09 22:37:00,
2013-04-09 17:43:00,49.2,47.0,29.83,NE,47,16.0,19.0,92,0.00,,,0.09,Wunderground v.1.15,2013-04-09 22:43:00,
2013-04-09 17:49:00,49.1,47.2,29.84,NNE,26,17.0,20.0,93,0.00,,,0.09,Wunderground v.1.15,2013-04-09 22:49:00,
2013-04-09 17:55:00,49.0,47.1,29.85,NE,51,16.0,22.0,93,0.00,,,0.09,Wunderground v.1.15,2013-04-09 22:55:00,
2013-04-09 18:01:00,49.0,47.1,29.85,NE,52,14.0,16.0,93,0.00,,,0.09,Wunderground v.1.15,2013-04-09 23:01:00,
2013-04-09 18:06:00,48.5,46.6,29.85,NE,44,14.0,19.0,93,0.00,,,0.09,Wunderground v.1.15,2013-04-09 23:06:00,
2013-04-09 18:11:00,48.3,46.4,29.85,NE,37,15.0,17.0,93,0.00,,,0.09,Wunderground v.1.15,2013-04-09 23:11:00,
2013-04-09 18:16:00,47.8,45.9,29.85,NE,42,16.0,18.0,93,0.00,,,0.09,Wunderground v.1.15,2013-04-09 23:16:00,
2013-04-09 18:22:00,47.3,45.4,29.85,NE,51,17.0,22.0,93,0.00,,,0.09,Wunderground v.1.15,2013-04-09 23:22:00,
2013-04-09 18:28:00,46.9,45.0,29.85,NE,49,18.0,22.0,93,0.00,,,0.09,Wunderground v.1.15,2013-04-09 23:28:00,
2013-04-09 18:33:00,46.6,44.7,29.85,NE,34,19.0,25.0,93,0.00,,,0.09,Wunderground v.1.15,2013-04-09 23:33:00,
2013-04-09 18:39:00,46.3,44.7,29.85,NE,38,19.0,25.0,94,0.00,,,0.09,Wunderground v.1.15,2013-04-09 23:39:00,
2013-04-09 18:45:00,46.2,44.6,29.85,NE,42,17.0,18.0,94,0.00,,,0.09,Wunderground v.1.15,2013-04-09 23:45:00,
2013-04-09 18:50:00,46.1,44.5,29.85,NE,53,16.0,17.0,94,0.00,,,0.09,Wunderground v.1.15,2013-04-09 23:50:00,
2013-04-09 18:56:00,45.6,44.0,29.85,NE,40,17.0,25.0,94,0.00,,,0.09,Wunderground v.1.15,2013-04-09 23:56:00,
2013-04-09 19:02:00,45.5,43.9,29.86,NE,41,18.0,20.0,94,0.00,,,0.09,Wunderground v.1.15,2013-04-10 00:02:00,
2013-04-09 19:08:00,45.2,43.6,29.86,NE,48,17.0,21.0,94,0.00,,,0.09,Wunderground v.1.15,2013-04-10 00:08:00,
2013-04-09 19:13:00,45.1,43.5,29.87,NE,51,17.0,18.0,94,0.00,,,0.09,Wunderground v.1.15,2013-04-10 00:13:00,
2013-04-09 19:19:00,44.5,42.6,29.86,NE,51,18.0,24.0,93,0.00,,,0.09,Wunderground v.1.15,2013-04-10 00:19:00,
2013-04-09 19:25:00,44.3,42.7,29.87,ENE,59,19.0,23.0,94,0.00,,,0.09,Wunderground v.1.15,2013-04-10 00:25:00,
2013-04-09 19:31:00,44.2,42.6,29.87,NE,53,17.0,21.0,94,0.00,,,0.09,Wunderground v.1.15,2013-04-10 00:31:00,
2013-04-09 19:36:00,44.0,42.1,29.87,NE,40,18.0,28.0,93,0.00,,,0.09,Wunderground v.1.15,2013-04-10 00:36:00,
2013-04-09 19:42:00,43.8,42.2,29.88,NE,38,19.0,20.0,94,0.00,,,0.09,Wunderground v.1.15,2013-04-10 00:42:00,
2013-04-09 19:48:00,43.7,41.8,29.88,NE,43,20.0,24.0,93,0.00,,,0.09,Wunderground v.1.15,2013-04-10 00:48:00,
2013-04-09 19:53:00,43.6,41.7,29.88,NE,50,21.0,28.0,93,0.00,,,0.09,Wunderground v.1.15,2013-04-10 00:53:00,
2013-04-09 19:59:00,43.6,41.7,29.88,NE,50,20.0,28.0,93,0.00,,,0.09,Wunderground v.1.15,2013-04-10 00:59:00,
2013-04-09 20:05:00,43.6,41.7,29.88,NE,49,20.0,28.0,93,0.00,,,0.09,Wunderground v.1.15,2013-04-10 01:05:00,
2013-04-09 20:12:00,43.6,41.7,29.89,NE,49,19.0,20.0,93,0.00,,,0.09,Wunderground v.1.15,2013-04-10 01:12:00,
2013-04-09 20:18:00,43.5,41.6,29.89,NE,49,19.0,21.0,93,0.00,,,0.09,Wunderground v.1.15,2013-04-10 01:18:00,
2013-04-09 20:24:00,43.4,41.2,29.88,NE,54,19.0,23.0,92,0.00,,,0.09,Wunderground v.1.15,2013-04-10 01:24:00,
2013-04-09 20:30:00,43.2,41.0,29.88,NE,39,18.0,24.0,92,0.00,,,0.09,Wunderground v.1.15,2013-04-10 01:30:00,
2013-04-09 20:35:00,43.0,41.1,29.89,NE,56,19.0,24.0,93,0.00,,,0.09,Wunderground v.1.15,2013-04-10 01:35:00,
2013-04-09 20:42:00,42.9,41.0,29.89,ENE,61,19.0,19.0,93,0.00,,,0.09,Wunderground v.1.15,2013-04-10 01:42:00,
2013-04-09 20:47:00,42.8,40.6,29.89,ENE,61,19.0,23.0,92,0.00,,,0.09,Wunderground v.1.15,2013-04-10 01:47:00,
2013-04-09 20:52:00,42.8,40.9,29.89,NE,53,19.0,22.0,93,0.00,,,0.09,Wunderground v.1.15,2013-04-10 01:52:00,
2013-04-09 20:58:00,42.6,40.4,29.90,NE,49,20.0,22.0,92,0.00,,,0.09,Wunderground v.1.15,2013-04-10 01:58:00,
2013-04-09 21:04:00,42.4,40.5,29.90,NE,49,19.0,20.0,93,0.00,,,0.09,Wunderground v.1.15,2013-04-10 02:04:00,
2013-04-09 21:10:00,42.4,40.5,29.90,NE,52,17.0,17.0,93,0.00,,,0.09,Wunderground v.1.15,2013-04-10 02:10:00,
2013-04-09 21:15:00,42.3,40.1,29.90,NE,52,20.0,29.0,92,0.00,,,0.09,Wunderground v.1.15,2013-04-10 02:15:00,
2013-04-09 21:21:00,42.1,39.9,29.90,ENE,60,21.0,23.0,92,0.00,,,0.09,Wunderground v.1.15,2013-04-10 02:21:00,
2013-04-09 21:27:00,42.0,39.8,29.91,ENE,65,19.0,24.0,92,0.00,,,0.09,Wunderground v.1.15,2013-04-10 02:27:00,
2013-04-09 21:33:00,41.9,39.7,29.91,NE,50,19.0,22.0,92,0.00,,,0.09,Wunderground v.1.15,2013-04-10 02:33:00,
2013-04-09 21:38:00,41.8,39.9,29.91,NE,45,20.0,24.0,93,0.00,,,0.09,Wunderground v.1.15,2013-04-10 02:38:00,
2013-04-09 21:44:00,41.6,39.7,29.91,NE,55,19.0,26.0,93,0.00,,,0.09,Wunderground v.1.15,2013-04-10 02:44:00,
2013-04-09 21:49:00,41.5,39.6,29.92,NE,44,18.0,29.0,93,0.00,,,0.09,Wunderground v.1.15,2013-04-10 02:49:00,
2013-04-09 21:55:00,41.5,39.9,29.92,ENE,69,19.0,24.0,94,0.00,,,0.09,Wunderground v.1.15,2013-04-10 02:55:00,
2013-04-09 22:00:00,41.4,39.8,29.92,ENE,70,20.0,20.0,94,0.00,,,0.09,Wunderground v.1.15,2013-04-10 03:00:00,
2013-04-09 22:07:00,41.5,39.9,29.92,ENE,62,18.0,22.0,94,0.00,,,0.09,Wunderground v.1.15,2013-04-10 03:07:00,
2013-04-09 22:13:00,41.3,39.7,29.91,NE,47,18.0,23.0,94,0.00,,,0.09,Wunderground v.1.15,2013-04-10 03:13:00,
2013-04-09 22:19:00,41.2,39.6,29.92,ENE,57,22.0,25.0,94,0.00,,,0.09,Wunderground v.1.15,2013-04-10 03:19:00,
2013-04-09 22:25:00,41.2,39.6,29.91,ENE,64,21.0,27.0,94,0.00,,,0.09,Wunderground v.1.15,2013-04-10 03:25:00,
2013-04-09 22:32:00,41.2,39.6,29.90,ENE,72,20.0,20.0,94,0.00,,,0.09,Wunderground v.1.15,2013-04-10 03:32:00,
2013-04-09 22:38:00,41.1,39.5,29.91,NE,55,19.0,21.0,94,0.00,,,0.09,Wunderground v.1.15,2013-04-10 03:38:00,
2013-04-09 22:44:00,41.0,39.4,29.91,ENE,62,22.0,29.0,94,0.00,,,0.09,Wunderground v.1.15,2013-04-10 03:44:00,
2013-04-09 22:50:00,40.9,39.6,29.90,ENE,67,22.0,22.0,95,0.00,,,0.09,Wunderground v.1.15,2013-04-10 03:50:00,
2013-04-09 22:55:00,40.8,39.5,29.91,ENE,58,20.0,22.0,95,0.00,,,0.09,Wunderground v.1.15,2013-04-10 03:55:00,
2013-04-09 23:00:00,40.7,39.4,29.90,NE,55,19.0,19.0,95,0.00,,,0.09,Wunderground v.1.15,2013-04-10 04:00:00,
2013-04-09 23:02:00,40.6,39.3,29.90,ENE,58,19.0,22.0,95,0.00,,,0.09,Wunderground v.1.15,2013-04-10 04:02:00,
2013-04-09 23:04:00,40.6,39.3,29.90,NE,51,19.0,22.0,95,0.00,,,0.09,Wunderground v.1.15,2013-04-10 04:04:00,
2013-04-09 23:05:00,40.6,39.3,29.90,ENE,78,19.0,22.0,95,0.00,,,0.09,Wunderground v.1.15,2013-04-10 04:05:00,
2013-04-09 23:10:00,40.5,39.2,29.91,NE,51,17.0,17.0,95,0.00,,,0.09,Wunderground v.1.15,2013-04-10 04:10:00,
2013-04-09 23:16:00,40.5,39.4,29.91,ENE,69,15.0,18.0,96,0.00,,,0.10,Wunderground v.1.15,2013-04-10 04:16:00,
2013-04-09 23:22:00,40.5,39.4,29.91,ENE,57,15.0,15.0,96,0.00,,,0.10,Wunderground v.1.15,2013-04-10 04:22:00,
2013-04-09 23:27:00,40.5,39.4,29.91,NE,48,16.0,19.0,96,0.00,,,0.10,Wunderground v.1.15,2013-04-10 04:27:00,
2013-04-09 23:33:00,40.6,39.5,29.91,ENE,74,16.0,17.0,96,0.00,,,0.10,Wunderground v.1.15,2013-04-10 04:33:00,
2013-04-09 23:38:00,40.6,39.8,29.91,ENE,70,16.0,18.0,97,0.00,,,0.10,Wunderground v.1.15,2013-04-10 04:38:00,
2013-04-09 23:44:00,40.5,39.7,29.91,NE,46,17.0,21.0,97,0.00,,,0.10,Wunderground v.1.15,2013-04-10 04:44:00,
2013-04-09 23:50:00,40.4,39.6,29.91,ENE,59,17.0,17.0,97,0.00,,,0.10,Wunderground v.1.15,2013-04-10 04:50:00,
2013-04-09 23:56:00,40.4,39.6,29.90,NE,49,16.0,21.0,97,0.00,,,0.10,Wunderground v.1.15,2013-04-10 04:56:00,